• Join FlightAware (Why Join?)
  • Login
  • US Flag 
08:26AM EDT


 

Airport Tracker/Info


-or-


 

Live Flight TrackerFlight Track Log ✈ AAL1686 ✈ 09-May-2013 ✈ KLAX - KSTL

Flight Track Log - Related Links

Times and Time Zones

All times are in EDT time to prevent confusion due to time zone crossing. See the AAL1686 flight status page for this flight to view local times or setup timezone preferences in your user account.

Time Position Orientation Groundspeed Altitude Reporting Facility
EDT Latitude Longitude Course Direction KTS MPH feet Rate Location/Type
08:00PM 33.9356 -118.4342 235° Southwest 186 214 1,300  Level Los Angeles Center
08:01PM 33.8922 -118.5086 235° Southwest 245 282 3,500 2,340 Climbing Los Angeles Center
08:02PM 33.8203 -118.5219 189° South 270 311 6,200 2,520 Climbing Los Angeles Center
08:03PM 33.7428 -118.5222 180° South 282 325 8,800 2,220 Climbing Los Angeles Center
08:04PM 33.6811 -118.4772 149° Southeast 295 339 10,800 1,860 Climbing Los Angeles Center
08:06PM 33.6422 -118.2367 101° East 364 419 14,700 1,920 Climbing Los Angeles Center
08:07PM 33.6433 -118.1114 89° East 379 436 16,800 1,740 Climbing Los Angeles Center
08:08PM 33.6436 -118.0094 90° East 384 442 18,400 1,920 Climbing Los Angeles Center
08:09PM 33.6436 -117.8261 90° East 395 455 20,800 1,740 Climbing Los Angeles Center
08:10PM 33.6431 -117.6917 90° East 403 464 22,100 1,260 Climbing Los Angeles Center
08:11PM 33.6431 -117.5542 90° East 413 475 23,500 1,200 Climbing Los Angeles Center
08:12PM 33.6419 -117.4172 91° East 414 476 24,600 1,080 Climbing Los Angeles Center
08:13PM 33.6408 -117.2764 91° East 422 486 25,800 1,260 Climbing Los Angeles Center
08:14PM 33.6389 -117.1078 91° East 423 487 27,300 1,200 Climbing Los Angeles Center
08:15PM 33.6008 -116.9703 108° East 436 502 28,400 1,140 Climbing Los Angeles Center
08:16PM 33.5706 -116.8375 105° East 434 499 29,700 960 Climbing Los Angeles Center
08:17PM 33.5686 -116.6992 91° East 417 480 30,400 600 Climbing Los Angeles Center
08:18PM 33.5875 -116.5319 82° East 418 481 31,000 240 Climbing Los Angeles Center
08:19PM 33.6053 -116.3894 81° East 428 493 30,900 -60 Descending Los Angeles Center
08:20PM 33.6514 -116.2589 67° East 425 489 30,900  Level Los Angeles Center
08:22PM 33.7103 -116.1333 61° Northeast 431 496 30,900  Level Los Angeles Center
08:23PM 33.7700 -116.0100 60° Northeast 427 491 30,900  Level Los Angeles Center
08:24PM 33.8322 -115.8933 57° Northeast 422 486 31,000  Climbing Los Angeles Center
08:25PM 33.8683 -115.7589 72° East 421 484 31,000 -60 Level Los Angeles Center
08:26PM 33.9108 -115.5969 72° East 423 487 30,900  Descending Los Angeles Center
08:27PM 33.9311 -115.4242 82° East 434 499 31,000 300 Climbing Los Angeles Center
08:28PM 33.9489 -115.2819 81° East 433 498 31,700 780 Climbing Los Angeles Center
08:29PM 33.9681 -115.1389 81° East 433 498 32,700 600 Climbing Los Angeles Center
08:30PM 34.0100 -115.0050 69° East 430 495 33,000 60 Climbing Los Angeles Center
08:31PM 34.0481 -114.8683 71° East 431 496 32,900  Descending Los Angeles Center
08:32PM 34.0936 -114.7047 71° East 432 497 33,000  Climbing Los Angeles Center
08:33PM 34.1336 -114.5692 70° East 431 496 33,000  Level Los Angeles Center
08:34PM 34.1717 -114.4328 71° East 432 497 33,000  Level Los Angeles Center
08:35PM 34.1919 -114.3614 71° East 432 497 33,000  Level Albuquerque Center
08:36PM 34.2317 -114.2219 71° East 434 499 33,000  Level Albuquerque Center
08:37PM 34.2697 -114.0842 71° East 435 501 33,000  Level Albuquerque Center
08:38PM 34.3094 -113.9436 71° East 437 503 33,000  Level Albuquerque Center
08:39PM 34.3481 -113.8036 71° East 440 506 33,000  Level Albuquerque Center
08:40PM 34.3858 -113.6653 72° East 437 503 33,000  Level Albuquerque Center
08:41PM 34.4289 -113.5064 72° East 433 498 33,000  Level Albuquerque Center
08:42PM 34.4661 -113.3711 72° East 429 494 33,000  Level Albuquerque Center
08:43PM 34.5014 -113.2325 73° East 431 496 33,000  Level Albuquerque Center
08:44PM 34.5392 -113.0964 71° East 432 497 33,000  Level Albuquerque Center
08:45PM 34.5756 -112.9592 72° East 431 496 33,000  Level Albuquerque Center
08:46PM 34.6189 -112.7944 72° East 433 498 33,000  Level Albuquerque Center
08:47PM 34.6558 -112.6594 72° East 429 494 33,000  Level Albuquerque Center
08:48PM 34.6903 -112.5236 73° East 426 490 33,000  Level Albuquerque Center
08:49PM 34.7242 -112.3875 73° East 426 490 33,000  Level Albuquerque Center
08:50PM 34.7547 -112.2508 75° East 425 489 33,000  Level Albuquerque Center
08:51PM 34.7914 -112.0881 75° East 421 484 33,000  Level Albuquerque Center
08:52PM 34.8242 -111.9497 74° East 424 488 33,000  Level Albuquerque Center
08:53PM 34.8553 -111.8125 75° East 425 489 33,000  Level Albuquerque Center
08:54PM 34.8853 -111.6714 75° East 426 490 33,000  Level Albuquerque Center
08:55PM 34.9172 -111.5311 74° East 428 493 33,000  Level Albuquerque Center
08:56PM 34.9486 -111.3903 75° East 430 495 33,000  Level Albuquerque Center
08:57PM 34.9789 -111.2489 75° East 431 496 33,000  Level Albuquerque Center
08:58PM 35.0161 -111.0772 75° East 435 501 33,100  Climbing Albuquerque Center
08:59PM 35.0467 -110.9333 75° East 438 504 33,000 -60 Descending Albuquerque Center
09:00PM 35.0761 -110.7939 75° East 436 502 33,000  Level Albuquerque Center
09:01PM 35.1114 -110.6358 75° East 434 499 33,000  Level Albuquerque Center
09:02PM 35.1403 -110.5006 75° East 432 497 33,000  Level Albuquerque Center
09:03PM 35.1739 -110.3406 76° East 434 499 33,000  Level Albuquerque Center
09:04PM 35.2042 -110.2050 75° East 434 499 33,000  Level Albuquerque Center
09:05PM 35.2336 -110.0675 75° East 435 501 33,000  Level Albuquerque Center
09:07PM 35.2675 -109.9058 76° East 438 504 33,000  Level Albuquerque Center
09:08PM 35.2967 -109.7667 76° East 441 507 33,000  Level Albuquerque Center
09:09PM 35.3297 -109.6031 76° East 443 510 33,000  Level Albuquerque Center
09:10PM 35.3575 -109.4639 76° East 442 509 33,000  Level Albuquerque Center
09:11PM 35.3911 -109.3000 76° East 445 512 33,000  Level Albuquerque Center
09:12PM 35.4197 -109.1603 76° East 444 511 33,000  Level Albuquerque Center
09:13PM 35.4508 -108.9972 77° East 442 509 33,000  Level Albuquerque Center
09:14PM 35.4808 -108.8564 75° East 445 512 33,000  Level Albuquerque Center
09:15PM 35.5194 -108.7181 71° East 449 517 33,000  Level Albuquerque Center
09:16PM 35.5625 -108.5567 72° East 449 517 33,000  Level Albuquerque Center
09:17PM 35.6003 -108.4175 72° East 450 518 33,000  Level Albuquerque Center
09:18PM 35.6444 -108.2547 71° East 451 519 33,000  Level Albuquerque Center
09:19PM 35.6819 -108.1156 72° East 450 518 33,000  Level Albuquerque Center
09:20PM 35.7236 -107.9544 72° East 446 513 33,000  Level Albuquerque Center
09:21PM 35.7603 -107.8161 72° East 445 512 33,000  Level Albuquerque Center
09:22PM 35.8017 -107.6550 72° East 444 511 33,000  Level Albuquerque Center
09:23PM 35.8389 -107.5153 72° East 446 513 33,000  Level Albuquerque Center
09:24PM 35.8756 -107.3744 72° East 450 518 33,000  Level Albuquerque Center
09:25PM 35.9186 -107.2094 72° East 452 520 33,000  Level Albuquerque Center
09:26PM 35.9519 -107.0797 72° East 453 521 33,000  Level Albuquerque Center
09:27PM 35.9892 -106.9336 72° East 448 516 33,000  Level Albuquerque Center
09:28PM 36.0342 -106.7600 72° East 443 510 33,000  Level Albuquerque Center
09:29PM 36.0719 -106.6100 73° East 451 519 33,000  Level Albuquerque Center
09:30PM 36.1106 -106.4594 72° East 457 526 33,000  Level Albuquerque Center
09:31PM 36.1475 -106.3092 73° East 456 525 33,000  Level Albuquerque Center
09:32PM 36.1844 -106.1594 73° East 455 524 33,000  Level Albuquerque Center
09:33PM 36.2192 -106.0092 74° East 454 522 33,000  Level Albuquerque Center
09:34PM 36.2397 -105.8503 81° East 463 533 33,000  Level Albuquerque Center
09:35PM 36.2686 -105.6892 77° East 474 545 33,000  Level Albuquerque Center
09:36PM 36.3061 -105.5189 75° East 470 541 33,000  Level Albuquerque Center
09:37PM 36.3433 -105.3622 74° East 468 539 33,000  Level Albuquerque Center
09:38PM 36.3783 -105.2064 74° East 467 537 33,000  Level Albuquerque Center
09:39PM 36.4147 -105.0497 74° East 466 536 33,000  Level Albuquerque Center
09:40PM 36.4500 -104.8947 74° East 463 533 33,000  Level Albuquerque Center
09:41PM 36.4906 -104.7106 75° East 468 539 33,000  Level Albuquerque Center
09:42PM 36.5247 -104.5542 75° East 465 535 33,000  Level Albuquerque Center
09:43PM 36.5600 -104.3969 74° East 466 536 33,000  Level Albuquerque Center
09:44PM 36.5953 -104.2394 74° East 466 536 33,000  Level Albuquerque Center
09:45PM 36.6294 -104.0828 75° East 465 535 33,000  Level Albuquerque Center
09:47PM 36.6642 -103.9236 75° East 467 537 33,000  Level Albuquerque Center
09:48PM 36.6967 -103.7731 75° East 470 541 33,000  Level Albuquerque Center
09:49PM 36.7339 -103.5975 75° East 472 543 33,000  Level Albuquerque Center
09:50PM 36.7636 -103.4472 76° East 469 540 33,000  Level Albuquerque Center
09:51PM 36.8011 -103.2717 75° East 470 541 33,000  Level Albuquerque Center
09:52PM 36.8325 -103.1219 75° East 468 539 33,000  Level Albuquerque Center
09:53PM 36.8633 -102.9700 76° East 472 543 33,000  Level Albuquerque Center
09:54PM 36.9000 -102.7928 75° East 473 544 33,000  Level Albuquerque Center
09:55PM 36.9311 -102.6403 76° East 473 544 33,000  Level Albuquerque Center
09:56PM 36.9633 -102.4850 75° East 473 544 33,000  Level Albuquerque Center
09:57PM 36.9986 -102.3044 76° East 478 550 33,000  Level Albuquerque Center
09:58PM 37.0294 -102.1508 76° East 477 549 33,000 240 Level Albuquerque Center
09:59PM 37.0653 -101.9711 76° East 476 548 33,600 540 Climbing Albuquerque Center
10:00PM 37.0939 -101.8144 77° East 482 555 34,200 660 Climbing Albuquerque Center
10:01PM 37.1294 -101.6347 76° East 478 550 35,000 360 Climbing Albuquerque Center
10:02PM 37.1531 -101.5061 77° East 476 548 35,000  Level Kansas City Center
10:03PM 37.1869 -101.3275 77° East 473 544 35,000  Level Kansas City Center
10:04PM 37.2156 -101.1758 77° East 470 541 35,000  Level Kansas City Center
10:05PM 37.2494 -101.0003 76° East 468 539 35,000  Level Kansas City Center
10:06PM 37.2769 -100.8503 77° East 465 535 35,000  Level Kansas City Center
10:07PM 37.3103 -100.6731 77° East 470 541 35,000  Level Kansas City Center
10:08PM 37.3389 -100.5181 77° East 476 548 35,000  Level Kansas City Center
10:09PM 37.3667 -100.3631 77° East 478 550 35,000  Level Kansas City Center
10:10PM 37.3986 -100.1861 77° East 471 542 35,000  Level Kansas City Center
10:11PM 37.4269 -100.0317 77° East 473 544 35,000  Level Kansas City Center
10:12PM 37.4586 -99.8508 78° East 476 548 35,000  Level Kansas City Center
10:13PM 37.4858 -99.6986 77° East 470 541 35,000  Level Kansas City Center
10:14PM 37.5119 -99.5464 78° East 468 539 35,000  Level Kansas City Center
10:15PM 37.5392 -99.3917 77° East 468 539 35,000  Level Kansas City Center
10:16PM 37.5664 -99.2325 78° East 467 537 35,000  Level Kansas City Center
10:17PM 37.5994 -99.0392 78° East 471 542 35,000  Level Kansas City Center
10:18PM 37.6278 -98.8761 78° East 474 545 35,000  Level Kansas City Center
10:19PM 37.6517 -98.7136 79° East 474 545 35,000  Level Kansas City Center
10:20PM 37.6786 -98.5533 78° East 470 541 35,000  Level Kansas City Center
10:21PM 37.7072 -98.3903 77° East 476 548 35,000  Level Kansas City Center
10:22PM 37.7322 -98.2286 79° East 472 543 35,000  Level Kansas City Center
10:23PM 37.7592 -98.0528 79° East 473 544 35,000  Level Kansas City Center
10:24PM 37.7842 -97.8872 79° East 476 548 35,000  Level Kansas City Center
10:25PM 37.8103 -97.7222 79° East 478 550 35,000  Level Kansas City Center
10:26PM 37.8356 -97.5592 79° East 472 543 35,000  Level Kansas City Center
10:27PM 37.8636 -97.3922 78° East 468 539 35,000  Level Kansas City Center
10:28PM 37.8881 -97.2292 79° East 473 544 35,000  Level Kansas City Center
10:29PM 37.9128 -97.0661 79° East 472 543 35,000  Level Kansas City Center
10:30PM 37.9383 -96.9028 79° East 473 544 35,000  Level Kansas City Center
10:31PM 37.9672 -96.7061 79° East 473 544 35,000  Level Kansas City Center
10:32PM 37.9919 -96.5428 79° East 473 544 35,000  Level Kansas City Center
10:33PM 38.0156 -96.3789 80° East 472 543 35,000  Level Kansas City Center
10:34PM 38.0389 -96.2167 80° East 469 540 35,000  Level Kansas City Center
10:36PM 38.0622 -96.0483 80° East 462 532 35,000  Level Kansas City Center
10:37PM 38.0853 -95.8917 79° East 472 543 35,000  Level Kansas City Center
10:38PM 38.1103 -95.7069 80° East 477 549 35,000  Level Kansas City Center
10:39PM 38.1319 -95.5483 80° East 478 550 35,000  Level Kansas City Center
10:40PM 38.1572 -95.3642 80° East 475 547 35,000  Level Kansas City Center
10:41PM 38.1789 -95.2044 80° East 479 551 35,000  Level Kansas City Center
10:42PM 38.1992 -95.0436 81° East 483 556 35,000  Level Kansas City Center
10:43PM 38.2244 -94.8569 80° East 481 554 35,000  Level Kansas City Center
10:44PM 38.2456 -94.6994 80° East 479 551 35,000  Level Kansas City Center
10:45PM 38.2694 -94.5136 81° East 478 550 35,000  Level Kansas City Center
10:46PM 38.2936 -94.3556 79° East 478 550 35,000  Level Kansas City Center
10:47PM 38.3206 -94.1944 78° East 480 552 35,000  Level Kansas City Center
10:48PM 38.3525 -94.0056 78° East 483 556 35,000  Level Kansas City Center
10:49PM 38.3778 -93.8369 79° East 483 556 35,000  Level Kansas City Center
10:50PM 38.4056 -93.6650 78° East 490 564 35,000  Level Kansas City Center
10:51PM 38.4328 -93.4944 78° East 490 564 35,000 -240 Level Kansas City Center
10:52PM 38.4600 -93.3208 79° East 494 568 34,600 -720 Descending Kansas City Center
10:53PM 38.4872 -93.1481 79° East 494 568 33,600 -1,020 Descending Kansas City Center
10:54PM 38.5125 -92.9775 79° East 489 563 32,600 -1,020 Descending Kansas City Center
10:55PM 38.5378 -92.8075 79° East 487 560 31,600 -1,080 Descending Kansas City Center
10:56PM 38.5647 -92.6306 79° East 495 570 30,500 -1,200 Descending Kansas City Center
10:57PM 38.5903 -92.4514 80° East 504 580 29,200 -1,440 Descending Kansas City Center
10:58PM 38.6153 -92.2708 80° East 509 586 27,600 -1,620 Descending Kansas City Center
10:59PM 38.6400 -92.0994 79° East 492 566 26,000 -1,860 Descending Kansas City Center
11:00PM 38.6678 -91.9075 79° East 459 528 23,800 -2,220 Descending Kansas City Center
11:01PM 38.6886 -91.7561 80° East 439 505 21,500 -2,340 Descending Kansas City Center
11:02PM 38.6911 -91.6075 89° East 419 482 19,100 -2,220 Descending Kansas City Center
11:03PM 38.6919 -91.4608 90° East 412 474 17,000 -1,980 Descending Kansas City Center
11:04PM 38.6925 -91.3372 90° East 405 466 15,100 -1,020 Descending Kansas City Center
11:05PM 38.6956 -91.1931 88° East 406 467 15,000 -1,080 Descending Kansas City Center
11:06PM 38.7003 -91.0203 88° East 404 465 12,900 -1,920 Descending Kansas City Center
11:07PM 38.7044 -90.8844 88° East 389 448 11,200 -1,500 Descending Kansas City Center
11:08PM 38.7083 -90.7606 88° East 359 413 9,900 -1,380 Descending Kansas City Center
11:09PM 38.7106 -90.6469 89° East 328 377 8,500 -1,380 Descending Kansas City Center
11:10PM 38.7139 -90.5375 88° East 311 358 7,100 -780 Descending Kansas City Center
11:11PM 38.6894 -90.4464 109° East 283 326 7,000 -780 Descending Kansas City Center
11:12PM 38.6619 -90.3719 115° Southeast 256 295 5,600 -1,560 Descending Kansas City Center
11:13PM 38.6314 -90.2811 113° Southeast 252 290 3,900 -1,320 Descending Kansas City Center
11:14PM 38.6694 -90.2297 47° Northeast 224 258 3,000 -900 Descending Kansas City Center